createdAt,value
2019-03-13T00:01:26.628Z,99645.38
2019-03-13T00:03:54.929Z,99642.44
2019-03-13T00:06:23.166Z,99646.72
2019-03-13T00:08:51.437Z,99643.73
2019-03-13T00:11:19.675Z,99647.38
2019-03-13T00:13:47.941Z,99647.38
2019-03-13T00:16:16.182Z,99655.55
2019-03-13T00:18:44.418Z,99648.83
2019-03-13T00:21:12.729Z,99648.63
2019-03-13T00:23:40.942Z,99644.90
2019-03-13T00:26:09.190Z,99642.00
2019-03-13T00:28:37.457Z,99635.59
2019-03-13T00:31:06.268Z,99637.94
2019-03-13T00:33:34.535Z,99635.85
2019-03-13T00:36:02.953Z,99635.85
2019-03-13T00:38:31.209Z,99634.05
2019-03-13T00:40:59.451Z,99629.23
2019-03-13T00:43:27.752Z,99636.94
2019-03-13T00:45:55.985Z,99628.63
2019-03-13T00:48:24.283Z,99635.90
2019-03-13T00:50:52.519Z,99633.44
2019-03-13T00:53:20.869Z,99633.44
2019-03-13T00:55:49.134Z,99640.97
2019-03-13T00:58:18.967Z,99627.29
2019-03-13T01:00:58.345Z,99638.88
2019-03-13T01:03:33.923Z,99638.58
2019-03-13T01:06:21.925Z,99638.58
2019-03-13T01:08:50.159Z,99622.02
2019-03-13T01:11:18.521Z,99622.02
2019-03-13T01:13:46.785Z,99634.25
2019-03-13T01:16:15.053Z,99634.25
2019-03-13T01:18:43.344Z,99639.11
2019-03-13T01:21:11.648Z,99641.05
2019-03-13T01:23:39.904Z,99637.63
2019-03-13T01:26:08.149Z,99636.64
2019-03-13T01:28:36.446Z,99625.83
2019-03-13T01:31:21.347Z,99608.30
2019-03-13T01:33:49.741Z,99617.12
2019-03-13T01:36:17.981Z,99626.82
2019-03-13T01:38:46.222Z,99630.06
2019-03-13T01:41:14.674Z,99622.59
2019-03-13T01:43:42.949Z,99622.59
2019-03-13T01:46:11.176Z,99604.16
2019-03-13T01:48:39.576Z,99610.47
2019-03-13T01:51:07.814Z,99612.55
2019-03-13T01:53:36.793Z,99608.52
2019-03-13T01:56:05.069Z,99612.80
2019-03-13T01:58:33.374Z,99609.81
2019-03-13T02:01:02.432Z,99599.34
2019-03-13T02:03:31.005Z,99599.34
2019-03-13T02:05:59.254Z,99603.72
2019-03-13T02:08:27.560Z,99595.27
2019-03-13T02:10:55.816Z,99595.98
2019-03-13T02:13:24.925Z,99595.98
2019-03-13T02:15:53.179Z,99592.19
2019-03-13T02:18:21.470Z,99601.53
2019-03-13T02:20:49.851Z,99593.69
2019-03-13T02:23:18.181Z,99584.60
2019-03-13T02:25:46.445Z,99597.16
2019-03-13T02:28:14.739Z,99591.95
2019-03-13T02:30:43.128Z,99586.53
2019-03-13T02:33:11.381Z,99578.91
2019-03-13T02:35:39.755Z,99567.38
2019-03-13T02:38:08.049Z,99587.57
2019-03-13T02:40:36.630Z,99580.30
2019-03-13T02:43:04.884Z,99576.22
2019-03-13T02:45:33.145Z,99566.56
2019-03-13T02:48:01.411Z,99572.62
2019-03-13T02:50:29.677Z,99566.16
2019-03-13T02:52:58.075Z,99563.98
2019-03-13T02:55:26.309Z,99558.10
2019-03-13T02:57:54.547Z,99557.44
2019-03-13T03:00:27.458Z,99556.66
2019-03-13T03:03:00.063Z,99542.30
2019-03-13T03:05:28.289Z,99542.30
2019-03-13T03:07:56.565Z,99541.05
2019-03-13T03:10:24.876Z,99541.05
2019-03-13T03:12:53.176Z,99529.13
2019-03-13T03:15:21.454Z,99529.13
2019-03-13T03:17:49.696Z,99531.23
2019-03-13T03:20:19.860Z,99528.77
2019-03-13T03:22:48.096Z,99533.41
2019-03-13T03:25:17.453Z,99528.59
2019-03-13T03:27:45.691Z,99528.59
2019-03-13T03:30:19.353Z,99526.44
2019-03-13T03:32:47.622Z,99526.44
2019-03-13T03:35:15.997Z,99519.61
2019-03-13T03:37:46.895Z,99519.61
2019-03-13T03:40:23.035Z,99523.70
2019-03-13T03:42:50.076Z,99513.87
2019-03-13T03:45:18.552Z,99516.67
2019-03-13T03:47:46.824Z,99516.67
2019-03-13T03:50:16.220Z,99502.72
2019-03-13T03:52:44.477Z,99507.05
2019-03-13T03:55:13.728Z,99518.16
2019-03-13T03:57:41.972Z,99518.16
2019-03-13T04:00:16.456Z,99493.00
2019-03-13T04:02:44.766Z,99490.98
2019-03-13T04:05:13.138Z,99494.70
2019-03-13T04:07:41.471Z,99494.70
2019-03-13T04:10:12.038Z,99489.47
2019-03-13T04:12:40.666Z,99489.47
2019-03-13T04:15:11.749Z,99485.84
2019-03-13T04:17:39.999Z,99485.84
2019-03-13T04:20:10.383Z,99486.05
2019-03-13T04:22:40.267Z,99486.05
2019-03-13T04:25:26.869Z,99496.27
2019-03-13T04:27:55.195Z,99496.27
2019-03-13T04:30:23.479Z,99491.92
2019-03-13T04:32:51.759Z,99483.55
2019-03-13T04:35:20.016Z,99482.67
2019-03-13T04:37:48.318Z,99482.67
2019-03-13T04:40:16.844Z,99479.20
2019-03-13T04:42:45.217Z,99481.39
2019-03-13T04:45:13.554Z,99481.39
2019-03-13T04:47:41.788Z,99485.27
2019-03-13T04:50:14.144Z,99486.30
2019-03-13T04:52:42.473Z,99484.68
2019-03-13T04:55:12.132Z,99484.68
2019-03-13T04:57:40.565Z,99482.00
2019-03-13T05:00:15.008Z,99484.84
2019-03-13T05:02:43.382Z,99478.75
2019-03-13T05:05:31.311Z,99481.75
2019-03-13T05:07:59.547Z,99471.84
2019-03-13T05:10:27.846Z,99468.40
2019-03-13T05:12:56.410Z,99471.08
2019-03-13T05:15:24.838Z,99482.78
2019-03-13T05:17:53.098Z,99475.27
2019-03-13T05:20:21.384Z,99475.27
2019-03-13T05:23:04.321Z,99482.78
2019-03-13T05:25:31.464Z,99447.15
2019-03-13T05:27:59.773Z,99447.15
2019-03-13T05:30:28.007Z,99481.18
2019-03-13T05:32:56.306Z,99488.46
2019-03-13T05:45:01.657Z,99461.98
2019-03-13T05:47:29.966Z,99461.98
2019-03-13T05:50:01.211Z,99479.33
2019-03-13T05:52:29.480Z,99470.17
2019-03-13T05:54:57.763Z,99470.64
2019-03-13T05:57:26.027Z,99472.98
2019-03-13T05:59:54.274Z,99451.42
2019-03-13T06:02:23.355Z,99451.42
2019-03-13T06:04:51.601Z,99462.42
2019-03-13T06:07:19.846Z,99452.58
2019-03-13T06:09:48.116Z,99452.58
2019-03-13T06:12:16.362Z,99463.20
2019-03-13T06:14:44.714Z,99463.20
2019-03-13T06:17:12.992Z,99469.14
2019-03-13T06:19:41.249Z,99439.70
2019-03-13T06:22:09.486Z,99442.39
2019-03-13T06:24:37.786Z,99447.14
2019-03-13T06:27:06.031Z,99452.89
2019-03-13T06:29:34.351Z,99437.05
2019-03-13T06:32:02.584Z,99437.05
2019-03-13T06:34:31.024Z,99449.80
2019-03-13T06:36:59.944Z,99442.27
2019-03-13T06:39:28.195Z,99449.59
2019-03-13T06:41:56.463Z,99449.59
2019-03-13T06:44:24.765Z,99434.73
2019-03-13T06:46:53.124Z,99451.23
2019-03-13T06:49:21.353Z,99442.52
2019-03-13T06:51:49.647Z,99433.21
2019-03-13T06:54:17.926Z,99437.71
2019-03-13T06:56:46.380Z,99437.71
2019-03-13T06:59:16.268Z,99427.98
2019-03-13T07:02:02.527Z,99419.68
2019-03-13T07:04:32.416Z,99426.27
2019-03-13T07:07:17.519Z,99403.61
2019-03-13T07:09:47.421Z,99403.73
2019-03-13T07:12:22.810Z,99417.64
2019-03-13T07:15:04.701Z,99414.45
2019-03-13T07:17:37.413Z,99414.45
2019-03-13T07:20:10.605Z,99405.92
2019-03-13T07:22:40.567Z,99418.48
2019-03-13T07:25:28.807Z,99399.42
2019-03-13T07:28:07.726Z,99405.85
2019-03-13T07:30:37.614Z,99401.19
2019-03-13T07:33:24.123Z,99401.19
2019-03-13T07:35:56.705Z,99393.53
2019-03-13T07:38:35.415Z,99380.09
2019-03-13T07:41:05.333Z,99386.85
2019-03-13T07:43:41.092Z,99386.85
2019-03-13T07:46:22.690Z,99378.79
2019-03-13T07:49:04.536Z,99378.41
2019-03-13T07:51:34.413Z,99378.41
2019-03-13T07:54:07.257Z,99370.09
2019-03-13T07:56:53.450Z,99375.34
2019-03-13T07:59:26.118Z,99375.34
2019-03-13T08:01:56.018Z,99375.98
2019-03-13T08:04:28.812Z,99384.41
2019-03-13T08:06:58.742Z,99371.68
2019-03-13T08:09:43.403Z,99385.17
2019-03-13T08:12:13.327Z,99381.39
2019-03-13T08:15:02.053Z,99381.39
2019-03-13T08:17:47.952Z,99370.56
2019-03-13T08:20:20.351Z,99387.91
2019-03-13T08:23:08.640Z,99376.00
2019-03-13T08:25:54.474Z,99378.13
2019-03-13T08:28:26.853Z,99391.70
2019-03-13T08:31:14.624Z,99386.39
2019-03-13T08:33:48.659Z,99375.77
2019-03-13T08:36:18.586Z,99374.90
2019-03-13T08:38:57.132Z,99373.16
2019-03-13T08:41:27.054Z,99354.48
2019-03-13T08:44:02.681Z,99374.55
2019-03-13T08:46:41.469Z,99366.63
2019-03-13T08:49:29.449Z,99386.34
2019-03-13T08:52:17.428Z,99389.43
2019-03-13T08:54:59.316Z,99385.22
2019-03-13T08:57:29.261Z,99381.35
2019-03-13T08:59:59.140Z,99378.06
2019-03-13T09:02:29.028Z,99383.05
2019-03-13T09:05:07.725Z,99383.37
2019-03-13T09:07:37.659Z,99383.19
2019-03-13T09:10:16.824Z,99378.98
2019-03-13T09:12:52.406Z,99378.98
2019-03-13T09:15:22.360Z,99370.34
2019-03-13T09:17:52.272Z,99383.08
2019-03-13T09:20:27.974Z,99372.25
2019-03-13T09:23:00.569Z,99383.53
2019-03-13T09:25:30.463Z,99380.25
2019-03-13T09:28:09.352Z,99375.97
2019-03-13T09:30:48.211Z,99378.52
2019-03-13T09:33:18.137Z,99378.52
2019-03-13T09:35:54.001Z,99353.92
2019-03-13T09:38:26.700Z,99362.10
2019-03-13T09:41:05.707Z,99365.11
2019-03-13T09:43:35.602Z,99356.89
2019-03-13T09:46:06.044Z,99367.69
2019-03-13T09:48:51.820Z,99338.07
2019-03-13T09:51:37.655Z,99349.26
2019-03-13T09:54:26.028Z,99341.27
2019-03-13T09:57:01.599Z,99356.69
2019-03-13T09:59:42.812Z,99350.20
2019-03-13T10:02:03.179Z,99356.48
2019-03-13T10:04:35.589Z,99335.80
2019-03-13T10:07:22.903Z,99340.08
2019-03-13T10:10:01.378Z,99344.97
2019-03-13T10:12:47.458Z,99355.66
2019-03-13T10:15:26.134Z,99349.18
2019-03-13T10:17:58.988Z,99350.94
2019-03-13T10:20:28.897Z,99348.14
2019-03-13T10:23:01.319Z,99342.86
2019-03-13T10:25:31.402Z,99344.74
2019-03-13T10:28:09.911Z,99348.53
2019-03-13T10:30:47.327Z,99336.42
2019-03-13T10:33:19.962Z,99340.80
2019-03-13T10:35:55.463Z,99343.56
2019-03-13T10:38:43.423Z,99337.53
2019-03-13T10:41:16.137Z,99324.16
2019-03-13T10:43:49.064Z,99335.22
2019-03-13T10:46:21.512Z,99332.20
2019-03-13T10:49:07.431Z,99327.59
2019-03-13T10:51:39.754Z,99328.38
2019-03-13T10:54:09.639Z,99333.39
2019-03-13T10:56:48.330Z,99334.73
2019-03-13T10:59:23.875Z,99330.66
2019-03-13T11:01:53.796Z,99334.41
2019-03-13T11:04:23.927Z,99332.09
2019-03-13T11:06:55.229Z,99328.13
2019-03-13T11:09:25.380Z,99330.37
2019-03-13T11:11:57.771Z,99318.13
2019-03-13T11:14:36.377Z,99344.70
2019-03-13T11:17:15.214Z,99347.02
2019-03-13T11:19:47.930Z,99340.73
2019-03-13T11:22:33.119Z,99326.75
2019-03-13T11:25:05.669Z,99345.17
2019-03-13T11:27:47.628Z,99334.55
2019-03-13T11:30:20.627Z,99332.47
2019-03-13T11:32:49.393Z,99354.94
2019-03-13T11:35:19.347Z,99344.73
2019-03-13T11:38:01.102Z,99349.72
2019-03-13T11:40:43.218Z,99345.88
2019-03-13T11:43:18.930Z,99356.17
2019-03-13T11:45:54.797Z,99358.95
2019-03-13T11:48:24.730Z,99353.75
2019-03-13T11:50:57.518Z,99349.23
2019-03-13T11:53:27.441Z,99354.41
2019-03-13T11:56:09.391Z,99366.52
2019-03-13T11:58:45.231Z,99347.10
2019-03-13T12:01:18.111Z,99357.98
2019-03-13T12:03:48.065Z,99363.53
2019-03-13T12:06:24.126Z,99350.59
2019-03-13T12:09:09.374Z,99363.73
2019-03-13T12:11:42.036Z,99357.48
2019-03-13T12:14:17.642Z,99351.00
2019-03-13T12:16:47.699Z,99363.98
2019-03-13T12:19:17.620Z,99344.27
2019-03-13T12:22:03.712Z,99352.35
2019-03-13T12:24:33.648Z,99356.52
2019-03-13T12:27:09.507Z,99354.80
2019-03-13T12:29:41.923Z,99341.98
2019-03-13T12:32:11.852Z,99327.25
2019-03-13T12:34:56.679Z,99334.84
2019-03-13T12:37:29.519Z,99321.78
2019-03-13T12:40:11.481Z,99324.22
2019-03-13T12:42:47.050Z,99316.06
2019-03-13T12:45:29.385Z,99317.41
2019-03-13T12:48:00.471Z,99311.95
2019-03-13T12:50:34.322Z,99309.58
2019-03-13T12:53:04.435Z,99311.41
2019-03-13T12:55:34.367Z,99317.88
2019-03-13T12:58:20.411Z,99316.61
2019-03-13T13:00:50.318Z,99314.50
2019-03-13T13:03:34.608Z,99326.89
2019-03-13T13:06:04.590Z,99319.62
2019-03-13T13:08:41.566Z,99335.18
2019-03-13T13:11:17.417Z,99339.06
2019-03-13T13:13:47.297Z,99333.31
2019-03-13T13:16:29.300Z,99390.44
2019-03-13T13:18:57.546Z,99379.66
2019-03-13T13:21:25.825Z,99366.36
2019-03-13T13:23:54.112Z,99360.41
2019-03-13T13:26:22.347Z,99361.52
2019-03-13T13:28:50.646Z,99352.47
2019-03-13T13:31:18.910Z,99359.61
2019-03-13T13:33:47.172Z,99354.69
2019-03-13T13:36:15.558Z,99340.06
2019-03-13T13:38:43.804Z,99339.66
2019-03-13T13:41:12.071Z,99342.20
2019-03-13T13:43:40.422Z,99336.75
2019-03-13T13:46:17.875Z,99344.05
2019-03-13T13:48:46.184Z,99345.84
2019-03-13T13:51:14.426Z,99340.22
2019-03-13T13:53:42.670Z,99335.95
2019-03-13T13:56:10.941Z,99335.95
2019-03-13T13:58:39.216Z,99338.48
2019-03-13T14:01:07.498Z,99335.96
2019-03-13T14:03:35.739Z,99330.87
2019-03-13T14:06:04.124Z,99335.08
2019-03-13T14:08:32.372Z,99333.42
2019-03-13T14:11:00.615Z,99328.53
2019-03-13T14:13:28.930Z,99333.78
2019-03-13T14:15:57.301Z,99329.10
2019-03-13T14:18:25.613Z,99341.41
2019-03-13T14:20:53.822Z,99351.81
2019-03-13T14:23:22.098Z,99350.06
2019-03-13T14:25:50.343Z,99356.31
2019-03-13T14:28:18.658Z,99341.38
2019-03-13T14:30:46.965Z,99349.16
2019-03-13T14:33:15.231Z,99367.55
2019-03-13T14:35:46.199Z,99383.60
2019-03-13T14:38:13.468Z,99381.28
2019-03-13T14:40:41.711Z,99401.61
2019-03-13T14:43:10.011Z,99383.72
2019-03-13T14:45:38.240Z,99384.41
2019-03-13T14:48:07.083Z,99381.19
2019-03-13T14:50:36.610Z,99385.70
2019-03-13T14:53:05.145Z,99393.22
2019-03-13T14:55:33.413Z,99372.45
2019-03-13T14:58:01.719Z,99384.95
2019-03-13T15:00:29.968Z,99362.70
2019-03-13T15:02:59.142Z,99363.61
2019-03-13T15:05:27.423Z,99374.63
2019-03-13T15:07:55.825Z,99371.64
2019-03-13T15:10:24.061Z,99376.63
2019-03-13T15:12:52.311Z,99382.53
2019-03-13T15:15:22.681Z,99371.77
2019-03-13T15:17:53.105Z,99374.67
2019-03-13T15:20:30.663Z,99376.48
2019-03-13T15:22:58.901Z,99377.89
2019-03-13T15:25:27.198Z,99373.63
2019-03-13T15:27:55.488Z,99360.58
2019-03-13T15:30:27.851Z,99382.17
2019-03-13T15:32:56.085Z,99378.63
2019-03-13T15:35:24.364Z,99382.86
2019-03-13T15:37:52.731Z,99376.27
2019-03-13T15:40:20.994Z,99391.80
2019-03-13T15:42:49.304Z,99382.20
2019-03-13T15:45:24.747Z,99377.08
2019-03-13T15:47:53.065Z,99385.59
2019-03-13T15:50:21.348Z,99402.54
2019-03-13T15:52:49.584Z,99409.95
2019-03-13T15:55:18.687Z,99406.77
2019-03-13T15:57:46.989Z,99399.00
2019-03-13T16:00:24.311Z,99405.50
2019-03-13T16:02:55.434Z,99418.39
2019-03-13T16:05:22.615Z,99413.47
2019-03-13T16:07:50.899Z,99426.20
2019-03-13T16:10:19.990Z,99430.58
2019-03-13T16:12:48.267Z,99452.27
2019-03-13T16:15:25.877Z,99452.55
2019-03-13T16:17:54.113Z,99462.05
2019-03-13T16:20:22.476Z,99458.52
2019-03-13T16:23:01.372Z,99445.42
2019-03-13T16:25:29.606Z,99454.63
2019-03-13T16:27:57.902Z,99451.51
2019-03-13T16:30:34.476Z,99462.20
2019-03-13T16:33:02.777Z,99452.86
2019-03-13T16:35:31.136Z,99455.00
2019-03-13T16:37:59.387Z,99458.02
2019-03-13T16:40:27.925Z,99464.36
2019-03-13T16:42:56.232Z,99471.56
2019-03-13T16:45:24.786Z,99473.16
2019-03-13T16:47:53.066Z,99467.37
2019-03-13T16:50:26.417Z,99462.77
2019-03-13T16:52:54.682Z,99470.52
2019-03-13T16:55:22.946Z,99478.31
2019-03-13T16:57:51.219Z,99483.84
2019-03-13T17:00:31.752Z,99477.03
2019-03-13T17:03:00.013Z,99484.27
2019-03-13T17:05:28.260Z,99499.14
2019-03-13T17:07:56.530Z,99494.48
2019-03-13T17:10:26.866Z,99498.04
2019-03-13T17:12:55.218Z,99498.98
2019-03-13T17:15:25.335Z,99507.24
2019-03-13T17:17:54.001Z,99512.23
2019-03-13T17:20:29.921Z,99518.97
2019-03-13T17:22:58.220Z,99518.66
2019-03-13T17:25:26.567Z,99519.60
2019-03-13T17:27:54.847Z,99517.47
2019-03-13T17:30:26.397Z,99518.50
2019-03-13T17:32:54.681Z,99527.47
2019-03-13T17:35:22.958Z,99534.13
2019-03-13T17:37:51.310Z,99546.55
2019-03-13T17:40:30.564Z,99551.41
2019-03-13T17:42:59.859Z,99552.69
2019-03-13T17:45:28.105Z,99554.35
2019-03-13T17:47:56.352Z,99574.14
2019-03-13T17:50:25.183Z,99574.47
2019-03-13T17:52:53.452Z,99590.47
2019-03-13T17:55:22.746Z,99599.11
2019-03-13T17:57:51.124Z,99608.05
2019-03-13T18:00:22.483Z,99604.97
2019-03-13T18:02:50.713Z,99601.17
2019-03-13T18:05:19.044Z,99610.36
2019-03-13T18:07:47.271Z,99625.71
2019-03-13T18:10:20.055Z,99621.53
2019-03-13T18:12:48.289Z,99629.47
2019-03-13T18:15:17.786Z,99630.81
2019-03-13T18:17:46.001Z,99630.18
2019-03-13T18:20:19.806Z,99645.31
2019-03-13T18:22:48.225Z,99654.95
2019-03-13T18:25:18.104Z,99660.52
2019-03-13T18:27:46.823Z,99660.03
2019-03-13T18:30:22.987Z,99666.05
2019-03-13T18:32:51.226Z,99666.83
2019-03-13T18:35:20.358Z,99676.40
2019-03-13T18:37:48.670Z,99679.73
2019-03-13T18:40:18.689Z,99672.74
2019-03-13T18:42:47.119Z,99683.77
2019-03-13T18:45:29.030Z,99673.17
2019-03-13T18:47:57.612Z,99688.20
2019-03-13T18:50:25.875Z,99701.39
2019-03-13T18:52:54.171Z,99704.09
2019-03-13T18:55:35.565Z,99701.47
2019-03-13T18:58:03.805Z,99714.50
2019-03-13T19:00:36.023Z,99699.50
2019-03-13T19:03:06.101Z,99714.56
2019-03-13T19:05:36.007Z,99727.78
2019-03-13T19:08:05.167Z,99730.27
2019-03-13T19:10:33.870Z,99741.50
2019-03-13T19:13:02.165Z,99728.03
2019-03-13T19:15:30.420Z,99741.06
2019-03-13T19:18:00.822Z,99739.65
2019-03-13T19:20:29.615Z,99743.94
2019-03-13T19:22:57.848Z,99754.41
2019-03-13T19:25:26.227Z,99764.34
2019-03-13T19:27:54.471Z,99761.64
2019-03-13T19:30:32.700Z,99768.25
2019-03-13T19:33:00.950Z,99765.55
2019-03-13T19:35:29.225Z,99781.94
2019-03-13T19:38:09.115Z,99792.41
2019-03-13T19:40:37.652Z,99785.45
2019-03-13T19:43:06.476Z,99798.67
2019-03-13T19:45:45.921Z,99812.93
2019-03-13T19:48:14.237Z,99816.66
2019-03-13T19:50:44.188Z,99807.86
2019-03-13T19:53:12.592Z,99825.05
2019-03-13T19:55:42.938Z,99818.01
2019-03-13T19:58:14.194Z,99812.40
2019-03-13T20:00:46.132Z,99815.09
2019-03-13T20:03:17.413Z,99821.52
2019-03-13T20:05:46.789Z,99828.50
2019-03-13T20:08:17.276Z,99824.47
2019-03-13T20:10:47.916Z,99831.36
2019-03-13T20:13:19.502Z,99845.39
2019-03-13T20:15:49.410Z,99851.88
2019-03-13T20:18:19.444Z,99852.20
2019-03-13T20:20:49.520Z,99864.27
2019-03-13T20:23:20.887Z,99865.98
2019-03-13T20:25:50.527Z,99871.69
2019-03-13T20:28:29.152Z,99879.89
2019-03-13T20:30:58.729Z,99889.33
2019-03-13T20:33:33.881Z,99891.20
2019-03-13T20:36:07.230Z,99889.70
2019-03-13T20:38:40.952Z,99893.68
2019-03-13T20:41:09.296Z,99896.31
2019-03-13T20:43:37.671Z,99896.38
2019-03-13T20:46:05.930Z,99915.84
2019-03-13T20:48:34.319Z,99933.42
2019-03-13T20:51:02.848Z,99939.66
2019-03-13T20:53:31.178Z,99943.90
2019-03-13T20:55:59.464Z,99953.61
2019-03-13T20:58:27.816Z,99961.38
2019-03-13T21:00:56.171Z,99963.20
2019-03-13T21:03:24.581Z,99959.02
2019-03-13T21:05:52.954Z,99958.91
2019-03-13T21:08:21.845Z,99965.38
2019-03-13T21:10:50.245Z,99974.91
2019-03-13T21:13:18.482Z,99970.87
2019-03-13T21:15:46.723Z,99979.77
2019-03-13T21:18:15.106Z,99978.64
2019-03-13T21:20:43.371Z,99978.64
2019-03-13T21:23:12.153Z,99980.75
2019-03-13T21:25:40.514Z,99982.33
2019-03-13T21:28:08.809Z,99991.75
2019-03-13T21:30:37.140Z,99987.91
2019-03-13T21:33:05.505Z,100001.02
2019-03-13T21:35:33.809Z,99997.54
2019-03-13T21:38:09.473Z,100003.66
2019-03-13T21:40:37.728Z,100018.68
2019-03-13T21:43:06.012Z,100021.12
2019-03-13T21:45:41.144Z,100025.41
2019-03-13T21:48:04.449Z,100032.35
2019-03-13T21:50:32.683Z,100032.35
2019-03-13T21:53:00.958Z,100039.88
2019-03-13T21:55:29.230Z,100038.42
2019-03-13T21:57:57.548Z,100054.17
2019-03-13T22:00:26.622Z,100053.56
2019-03-13T22:02:55.006Z,100055.72
2019-03-13T22:05:27.360Z,100063.75
2019-03-13T22:07:53.988Z,100068.59
2019-03-13T22:10:22.801Z,100071.28
2019-03-13T22:12:51.133Z,100078.32
2019-03-13T22:15:20.548Z,100081.55
2019-03-13T22:17:48.797Z,100089.10
2019-03-13T22:20:17.496Z,100094.49
2019-03-13T22:22:45.901Z,100087.65
2019-03-13T22:25:15.390Z,100097.61
2019-03-13T22:27:43.836Z,100107.86
2019-03-13T22:30:21.180Z,100109.44
2019-03-13T22:32:49.609Z,100104.09
2019-03-13T22:35:17.853Z,100107.86
2019-03-13T22:37:46.142Z,100113.00
2019-03-13T22:40:15.853Z,100125.91
2019-03-13T22:42:44.094Z,100124.08
2019-03-13T22:45:15.069Z,100128.35
2019-03-13T22:47:43.887Z,100135.09
2019-03-13T22:50:17.352Z,100129.95
2019-03-13T22:52:45.765Z,100138.04
2019-03-13T22:55:14.206Z,100144.30
2019-03-13T22:57:42.498Z,100148.17
2019-03-13T23:00:23.339Z,100153.83
2019-03-13T23:02:52.074Z,100157.09
2019-03-13T23:05:20.709Z,100163.40
2019-03-13T23:07:48.977Z,100167.48
2019-03-13T23:10:33.332Z,100170.53
2019-03-13T23:13:01.617Z,100174.53
2019-03-13T23:15:30.025Z,100175.41
2019-03-13T23:17:58.267Z,100176.36
2019-03-13T23:20:26.520Z,100186.39
2019-03-13T23:22:54.782Z,100189.87
2019-03-13T23:25:23.295Z,100192.39
2019-03-13T23:27:51.591Z,100190.35
2019-03-13T23:30:20.294Z,100199.33
2019-03-13T23:32:48.528Z,100208.28
2019-03-13T23:35:16.787Z,100211.02
2019-03-13T23:37:45.176Z,100217.45
2019-03-13T23:40:13.415Z,100219.66
2019-03-13T23:42:41.697Z,100215.09
2019-03-13T23:45:10.252Z,100218.95
2019-03-13T23:47:39.272Z,100219.73
2019-03-13T23:50:09.536Z,100219.78
2019-03-13T23:52:37.813Z,100224.86
2019-03-13T23:55:06.730Z,100221.08
2019-03-13T23:57:34.975Z,100224.38
